Time;durP1;ratioP1;P1;durP2;ratioP2;P2;SDS_P1;SDS_P2;PMS_P1;PMS_P2;Temp;Humidity;BMP_temperature;BMP_pressure;BME280_temperature;BME280_humidity;BME280_pressure;Samples;Min_cycle;Max_cycle;Signal;HPM_P1;HPM_P2
2023/08/05 00:00:11;;;;;;;2.00;1.80;;;;;;;18.46;100.00;98017.91;2613825;28;20404;-86
2023/08/05 00:01:43;;;;;;;;;;;;;;;18.46;100.00;98013.47;2614076;28;20055;-86
2023/08/05 00:02:58;;;;;;;2.88;2.25;;;;;;;18.64;100.00;98021.97;2613720;28;19920;-85
2023/08/05 00:04:14;;;;;;;3.97;2.28;;;;;;;18.56;100.00;98010.19;2613785;28;20054;-85
2023/08/05 00:05:30;;;;;;;3.70;2.33;;;;;;;18.54;100.00;98010.31;2602701;28;20045;-85
2023/08/05 00:06:45;;;;;;;3.78;2.40;;;;;;;18.45;100.00;98005.63;2596638;28;20056;-85
2023/08/05 00:08:01;;;;;;;3.08;1.92;;;;;;;18.31;100.00;98002.09;2607178;28;20412;-85
2023/08/05 00:09:17;;;;;;;2.67;2.20;;;;;;;18.54;100.00;98001.50;2613680;28;20057;-85
2023/08/05 00:10:32;;;;;;;2.30;2.10;;;;;;;18.65;100.00;98001.63;2613692;28;20099;-85
2023/08/05 00:11:48;;;;;;;3.63;2.13;;;;;;;18.68;100.00;97998.75;2613763;28;20049;-85
2023/08/05 00:13:04;;;;;;;1.77;1.67;;;;;;;18.64;100.00;97991.97;2613753;28;20046;-85
2023/08/05 00:14:19;;;;;;;3.00;2.28;;;;;;;18.61;100.00;97987.72;2613464;28;20041;-85
2023/08/05 00:15:35;;;;;;;2.63;1.80;;;;;;;18.40;100.00;97986.53;2613710;28;20049;-85
2023/08/05 00:16:50;;;;;;;4.53;2.00;;;;;;;18.43;100.00;97989.81;2613749;28;20041;-87
2023/08/05 00:18:06;;;;;;;2.50;2.00;;;;;;;18.60;100.00;97993.16;2613772;28;20044;-85
2023/08/05 00:19:21;;;;;;;3.50;1.90;;;;;;;18.69;100.00;97994.31;2602585;28;20127;-85
2023/08/05 00:20:37;;;;;;;2.83;1.95;;;;;;;18.54;100.00;97993.53;2606920;28;20412;-84
2023/08/05 00:21:52;;;;;;;2.53;1.95;;;;;;;18.50;100.00;97987.59;2613753;28;20041;-84
2023/08/05 00:23:08;;;;;;;2.58;2.13;;;;;;;18.47;100.00;97991.31;2613503;28;20558;-84
2023/08/05 00:24:24;;;;;;;2.10;1.90;;;;;;;18.42;100.00;97985.47;2613451;28;20049;-84
2023/08/05 00:25:39;;;;;;;3.13;2.10;;;;;;;18.44;100.00;97986.25;2613678;28;20045;-85
2023/08/05 00:26:55;;;;;;;2.20;1.92;;;;;;;18.38;100.00;97981.34;2613525;28;20099;-84
2023/08/05 00:28:10;;;;;;;3.45;2.20;;;;;;;18.45;100.00;97984.41;2613431;28;20040;-84
2023/08/05 00:29:26;;;;;;;3.53;2.28;;;;;;;18.35;100.00;97984.19;2613446;28;20049;-85
2023/08/05 00:30:41;;;;;;;4.55;2.00;;;;;;;18.34;100.00;97979.84;2613577;28;20048;-85
2023/08/05 00:31:57;;;;;;;3.92;2.30;;;;;;;18.34;100.00;97977.19;2602349;28;20484;-84
2023/08/05 00:33:13;;;;;;;2.30;2.00;;;;;;;18.39;100.00;97979.56;2606849;28;20132;-86
2023/08/05 00:34:28;;;;;;;3.00;2.20;;;;;;;18.31;100.00;97982.72;2613457;28;20064;-85
2023/08/05 00:35:43;;;;;;;3.58;2.00;;;;;;;18.27;100.00;97987.38;2613465;28;20558;-84
2023/08/05 00:36:59;;;;;;;2.58;2.10;;;;;;;18.33;100.00;97976.34;2613141;28;20098;-85
2023/08/05 00:38:15;;;;;;;3.20;2.35;;;;;;;18.26;100.00;97975.06;2613411;28;20055;-84
2023/08/05 00:39:30;;;;;;;2.92;2.10;;;;;;;18.35;100.00;97974.44;2613455;28;20049;-85
2023/08/05 00:40:46;;;;;;;2.60;2.40;;;;;;;18.35;100.00;97976.25;2613496;28;20048;-85
2023/08/05 00:42:02;;;;;;;3.92;2.10;;;;;;;18.25;100.00;97977.81;2613362;28;20049;-85
2023/08/05 00:43:17;;;;;;;5.55;2.47;;;;;;;18.25;100.00;97978.69;2613486;28;20553;-85
2023/08/05 00:44:33;;;;;;;4.07;2.22;;;;;;;18.25;100.00;97977.81;2613357;28;20053;-85
2023/08/05 00:45:49;;;;;;;4.05;2.30;;;;;;;18.18;100.00;97977.38;2613469;28;20049;-86
2023/08/05 00:47:05;;;;;;;2.88;2.25;;;;;;;18.24;100.00;97976.13;2613457;28;20438;-86
2023/08/05 00:48:22;;;;;;;2.58;2.30;;;;;;;18.21;100.00;97977.16;2613246;28;20048;-85
2023/08/05 00:49:37;;;;;;;3.55;2.17;;;;;;;18.16;100.00;97974.84;2613158;28;20114;-85
2023/08/05 00:50:54;;;;;;;3.58;2.67;;;;;;;18.20;100.00;97976.31;2613474;28;20053;-85
2023/08/05 00:52:10;;;;;;;2.83;1.92;;;;;;;18.20;100.00;97975.47;2613119;28;20041;-85
2023/08/05 00:53:26;;;;;;;2.42;2.20;;;;;;;18.29;100.00;97979.28;2613240;28;20515;-85
2023/08/05 00:54:42;;;;;;;3.22;2.30;;;;;;;18.23;100.00;97966.47;2602184;28;20041;-85
2023/08/05 00:55:58;;;;;;;2.28;2.08;;;;;;;18.21;100.00;97977.16;2606760;28;20128;-85
2023/08/05 00:57:14;;;;;;;3.47;2.05;;;;;;;18.18;100.00;97977.38;2613268;28;20049;-85
2023/08/05 00:58:31;;;;;;;3.40;2.17;;;;;;;18.20;100.00;97978.13;2613348;28;20098;-85
2023/08/05 00:59:47;;;;;;;2.30;2.10;;;;;;;18.04;100.00;97967.72;2613056;28;20041;-87
2023/08/05 01:01:02;;;;;;;4.65;2.20;;;;;;;18.11;100.00;97966.34;2613210;28;20056;-85
2023/08/05 01:02:18;;;;;;;2.58;2.10;;;;;;;17.97;100.00;97969.88;2613219;28;20132;-85
2023/08/05 01:03:33;;;;;;;3.47;2.30;;;;;;;18.06;100.00;97968.47;2613108;28;20055;-85
2023/08/05 01:04:49;;;;;;;3.10;2.20;;;;;;;18.10;100.00;97967.28;2611863;28;20049;-85
2023/08/05 01:06:05;;;;;;;3.03;2.15;;;;;;;18.04;100.00;97967.72;2613083;28;20049;-85
2023/08/05 01:07:22;;;;;;;4.28;2.42;;;;;;;17.97;100.00;97959.28;2613230;28;20060;-85
2023/08/05 01:08:38;;;;;;;3.25;2.20;;;;;;;18.07;100.00;97956.91;2613176;28;20045;-85
2023/08/05 01:09:54;;;;;;;3.25;2.30;;;;;;;18.07;100.00;97955.09;2613105;28;20476;-85
2023/08/05 01:11:11;;;;;;;2.35;2.05;;;;;;;18.09;100.00;97956.78;2613252;28;20041;-85
2023/08/05 01:12:26;;;;;;;3.47;2.20;;;;;;;18.00;100.00;97956.44;2613045;28;20120;-85
2023/08/05 01:13:42;;;;;;;3.20;2.10;;;;;;;17.99;100.00;97946.78;2613130;28;20047;-86
2023/08/05 01:14:58;;;;;;;2.70;1.92;;;;;;;17.96;100.00;97952.31;2613020;28;20045;-85
2023/08/05 01:16:14;;;;;;;2.30;2.10;;;;;;;17.99;100.00;97946.78;2612992;28;20095;-85
2023/08/05 01:17:30;;;;;;;2.97;2.20;;;;;;;17.92;100.00;97953.44;2613038;28;20095;-86
2023/08/05 01:18:46;;;;;;;3.10;2.20;;;;;;;17.75;100.00;97950.09;2613085;28;20045;-86
2023/08/05 01:20:03;;;;;;;2.88;2.20;;;;;;;17.72;100.00;97946.78;2612919;28;20041;-85
2023/08/05 01:21:28;;;;;;;4.60;2.10;;;;;;;17.84;100.00;97943.34;2601984;28;20080;-85
2023/08/05 01:22:44;;;;;;;2.40;2.20;;;;;;;17.59;100.00;97944.94;2607889;28;20481;-85
2023/08/05 01:24:05;;;;;;;2.90;2.10;;;;;;;17.77;100.00;97939.41;2612850;28;20048;-86
2023/08/05 01:25:29;;;;;;;3.13;2.40;;;;;;;17.76;100.00;97951.78;2612888;28;20072;-85
2023/08/05 01:26:48;;;;;;;3.88;2.60;;;;;;;17.76;100.00;97945.66;2612801;28;20073;-85
2023/08/05 01:28:05;;;;;;;2.50;2.22;;;;;;;17.70;100.00;97944.28;2612988;28;20083;-85
2023/08/05 01:29:22;;;;;;;3.95;2.70;;;;;;;17.72;100.00;97944.16;2612853;28;20072;-85
2023/08/05 01:30:39;;;;;;;3.75;2.92;;;;;;;17.85;100.00;97950.34;2612932;28;20052;-86
2023/08/05 01:31:56;;;;;;;4.00;2.60;;;;;;;17.90;100.00;97947.38;2612906;28;20041;-85
2023/08/05 01:33:12;;;;;;;2.88;2.60;;;;;;;17.84;100.00;97955.75;2612803;28;20052;-86
2023/08/05 01:34:28;;;;;;;3.13;2.35;;;;;;;17.74;100.00;97951.06;2612782;28;20045;-85
2023/08/05 01:35:50;;;;;;;3.28;2.42;;;;;;;17.58;100.00;97951.19;2612847;28;20170;-86
2023/08/05 01:37:05;;;;;;;2.55;2.30;;;;;;;17.52;100.00;97954.25;2612961;28;20044;-86
2023/08/05 01:38:21;;;;;;;3.08;2.45;;;;;;;17.44;100.00;97951.22;2613014;28;20041;-85
2023/08/05 01:39:37;;;;;;;2.90;2.60;;;;;;;17.35;100.00;97947.38;2612320;28;20049;-85
2023/08/05 01:40:52;;;;;;;3.00;2.70;;;;;;;17.28;100.00;97949.56;2612776;28;20040;-85
2023/08/05 01:42:08;;;;;;;3.00;2.47;;;;;;;17.41;100.00;97946.16;2613011;28;20493;-85
2023/08/05 01:43:24;;;;;;;4.40;2.40;;;;;;;17.52;100.00;97938.38;2612702;28;20045;-85
2023/08/05 01:44:39;;;;;;;3.55;2.45;;;;;;;17.44;100.00;97948.59;2612655;28;20037;-86
2023/08/05 01:45:55;;;;;;;3.35;2.67;;;;;;;17.43;100.00;97949.53;2612834;28;20040;-85
2023/08/05 01:47:10;;;;;;;3.53;2.50;;;;;;;17.38;100.00;97941.88;2612768;28;20464;-85
2023/08/05 01:48:26;;;;;;;2.35;2.15;;;;;;;17.43;100.00;97934.53;2612729;28;20049;-85
2023/08/05 01:49:41;;;;;;;3.85;2.55;;;;;;;17.43;100.00;97938.94;2612534;28;20049;-85
2023/08/05 01:50:57;;;;;;;2.65;2.30;;;;;;;17.57;100.00;97940.72;2612806;28;20080;-86
2023/08/05 01:52:12;;;;;;;3.25;2.53;;;;;;;17.60;100.00;97933.44;2612626;28;20048;-85
2023/08/05 01:53:28;;;;;;;2.70;2.42;;;;;;;17.76;100.00;97940.38;2612543;28;20511;-85
2023/08/05 01:54:43;;;;;;;5.50;2.92;;;;;;;17.73;100.00;97937.91;2612802;28;20045;-85
2023/08/05 01:55:59;;;;;;;3.08;2.30;;;;;;;17.84;100.00;97934.56;2612623;28;20091;-85
2023/08/05 01:57:15;;;;;;;2.85;2.20;;;;;;;17.73;100.00;97930.81;2612586;28;20512;-85
2023/08/05 01:58:30;;;;;;;5.00;2.20;;;;;;;17.83;100.00;97924.94;2612761;28;20040;-85
2023/08/05 01:59:45;;;;;;;3.03;2.28;;;;;;;17.98;100.00;97926.56;2612583;28;20049;-84
2023/08/05 02:01:01;;;;;;;3.35;2.30;;;;;;;17.86;100.00;97922.91;2601441;28;20125;-84
2023/08/05 02:02:17;;;;;;;3.92;2.05;;;;;;;17.93;100.00;97926.84;2605944;28;20055;-85
2023/08/05 02:03:32;;;;;;;3.10;2.20;;;;;;;17.89;100.00;97922.72;2612788;28;20045;-85
2023/08/05 02:04:48;;;;;;;3.42;2.40;;;;;;;17.92;100.00;97919.88;2612570;28;20050;-85
2023/08/05 02:06:03;;;;;;;5.50;2.38;;;;;;;17.97;100.00;97916.91;2612576;28;20049;-85
2023/08/05 02:07:19;;;;;;;2.70;2.30;;;;;;;18.01;100.00;97915.75;2601552;28;20124;-85
2023/08/05 02:08:34;;;;;;;3.30;2.38;;;;;;;17.98;100.00;97915.97;2606087;28;20413;-85
2023/08/05 02:09:50;;;;;;;3.30;2.38;;;;;;;18.03;100.00;97918.34;2612400;28;20049;-85
2023/08/05 02:11:05;;;;;;;3.22;2.30;;;;;;;18.11;100.00;97918.66;2612569;28;20052;-85
2023/08/05 02:12:21;;;;;;;3.22;2.20;;;;;;;18.12;100.00;97909.75;2612583;28;20041;-85
2023/08/05 02:13:37;;;;;;;2.28;2.00;;;;;;;18.03;100.00;97910.38;2612600;28;20041;-84
2023/08/05 02:14:52;;;;;;;4.47;2.10;;;;;;;18.01;100.00;97913.09;2612458;28;20103;-85
2023/08/05 02:16:07;;;;;;;2.97;1.92;;;;;;;17.99;100.00;97917.66;2612353;28;20385;-85
2023/08/05 02:17:24;;;;;;;3.03;2.10;;;;;;;17.98;100.00;97920.41;2612590;28;20041;-85
2023/08/05 02:18:39;;;;;;;2.47;2.28;;;;;;;17.85;100.00;97923.84;2612535;28;20072;-85
2023/08/05 02:19:55;;;;;;;2.78;2.20;;;;;;;17.71;100.00;97926.56;2612429;28;20045;-85
2023/08/05 02:21:11;;;;;;;2.50;2.10;;;;;;;17.73;100.00;97916.72;2612562;28;20048;-85
2023/08/05 02:22:27;;;;;;;2.40;2.20;;;;;;;17.77;100.00;97911.13;2612410;28;20052;-85
2023/08/05 02:23:42;;;;;;;2.78;2.30;;;;;;;17.80;100.00;97912.72;2612575;28;20492;-85
2023/08/05 02:24:58;;;;;;;5.03;2.58;;;;;;;17.74;100.00;97913.97;2612466;28;20052;-85
2023/08/05 02:26:13;;;;;;;2.53;2.20;;;;;;;17.61;100.00;97911.31;2612384;28;20055;-85
2023/08/05 02:27:29;;;;;;;5.35;2.30;;;;;;;17.65;100.00;97912.78;2612348;28;20568;-85
2023/08/05 02:28:46;;;;;;;2.78;2.30;;;;;;;17.73;100.00;97914.06;2612468;28;20060;-85
2023/08/05 02:30:01;;;;;;;3.85;2.33;;;;;;;17.61;100.00;97919.25;2612326;28;20102;-85
2023/08/05 02:31:17;;;;;;;3.45;2.50;;;;;;;17.57;100.00;97917.72;2612284;28;20049;-85
2023/08/05 02:32:32;;;;;;;2.55;2.35;;;;;;;17.56;100.00;97920.50;2612478;28;20542;-85
2023/08/05 02:33:48;;;;;;;2.88;2.60;;;;;;;17.47;100.00;97924.59;2612450;28;20049;-85
2023/08/05 02:35:04;;;;;;;4.20;2.60;;;;;;;17.56;100.00;97925.78;2612274;28;20408;-85
2023/08/05 02:36:19;;;;;;;3.67;2.72;;;;;;;17.57;100.00;97936.25;2612431;28;20079;-85
2023/08/05 02:37:35;;;;;;;2.90;2.60;;;;;;;17.55;100.00;97929.38;2601375;28;20053;-85
2023/08/05 02:38:51;;;;;;;3.60;2.47;;;;;;;17.48;100.00;97932.41;2605767;28;20045;-85
2023/08/05 02:40:07;;;;;;;5.25;2.50;;;;;;;17.56;100.00;97928.44;2612346;28;20084;-84
2023/08/05 02:41:22;;;;;;;3.33;2.65;;;;;;;17.57;100.00;97930.97;2612330;28;20048;-85
2023/08/05 02:42:38;;;;;;;2.60;2.33;;;;;;;17.45;100.00;97926.47;2612354;28;20532;-85
2023/08/05 02:43:54;;;;;;;3.65;2.75;;;;;;;17.48;100.00;97921.81;2612325;28;20044;-85
2023/08/05 02:45:09;;;;;;;4.03;2.47;;;;;;;17.39;100.00;97933.03;2601219;28;20053;-85
2023/08/05 02:46:25;;;;;;;4.13;2.63;;;;;;;17.41;100.00;97923.19;2605659;28;20052;-85
2023/08/05 02:47:40;;;;;;;3.67;2.35;;;;;;;17.38;100.00;97925.19;2612205;28;20245;-85
2023/08/05 02:48:56;;;;;;;2.92;2.50;;;;;;;17.35;100.00;97926.22;2612387;28;20114;-85
2023/08/05 02:50:11;;;;;;;3.65;2.45;;;;;;;17.38;100.00;97928.66;2612264;28;20049;-85
2023/08/05 02:51:27;;;;;;;3.28;2.60;;;;;;;17.43;100.00;97931.88;2612369;28;20099;-85
2023/08/05 02:52:42;;;;;;;3.30;2.80;;;;;;;17.44;100.00;97923.00;2612291;28;20045;-85
2023/08/05 02:53:58;;;;;;;3.00;2.35;;;;;;;17.44;100.00;97925.63;2612417;28;20045;-85
2023/08/05 02:55:14;;;;;;;3.38;2.72;;;;;;;17.46;100.00;97920.22;2601207;28;20049;-85
2023/08/05 02:56:30;;;;;;;5.13;2.47;;;;;;;17.49;100.00;97914.75;2605568;28;20048;-85
2023/08/05 02:57:45;;;;;;;4.57;2.53;;;;;;;17.47;100.00;97908.72;2612382;28;20539;-85
2023/08/05 02:59:01;;;;;;;4.18;2.63;;;;;;;17.30;100.00;97913.28;2612397;28;20049;-85
2023/08/05 03:00:16;;;;;;;3.65;2.17;;;;;;;17.46;100.00;97912.28;2612218;28;20072;-84
2023/08/05 03:01:32;;;;;;;3.10;2.28;;;;;;;17.50;100.00;97914.63;2612101;28;20053;-85
2023/08/05 03:02:48;;;;;;;2.80;2.58;;;;;;;17.54;100.00;97910.00;2601217;28;20049;-85
2023/08/05 03:04:03;;;;;;;3.78;2.30;;;;;;;17.46;100.00;97912.28;2605515;28;20048;-85
2023/08/05 03:05:19;;;;;;;11.93;2.72;;;;;;;17.60;100.00;97917.56;2612248;28;20048;-85
2023/08/05 03:06:34;;;;;;;3.10;2.40;;;;;;;17.65;100.00;97915.44;2612288;28;20048;-85
2023/08/05 03:07:50;;;;;;;3.15;2.47;;;;;;;17.58;100.00;97916.78;2612144;28;20041;-85
2023/08/05 03:09:05;;;;;;;2.80;2.50;;;;;;;17.63;100.00;97917.34;2612206;28;20501;-85
2023/08/05 03:10:21;;;;;;;2.95;2.40;;;;;;;17.52;100.00;97919.84;2612152;28;20447;-85
2023/08/05 03:11:36;;;;;;;3.38;2.60;;;;;;;17.46;100.00;97909.63;2612189;28;20048;-85
2023/08/05 03:12:52;;;;;;;2.60;2.25;;;;;;;17.39;100.00;97911.00;2601041;28;20068;-85
2023/08/05 03:14:08;;;;;;;2.55;2.35;;;;;;;17.17;100.00;97918.50;2605442;28;20052;-85
2023/08/05 03:15:27;;;;;;;3.17;2.42;;;;;;;17.23;100.00;97919.91;2612269;28;20044;-85
2023/08/05 03:16:42;;;;;;;4.22;2.95;;;;;;;17.53;100.00;97918.03;2612171;28;20053;-85
2023/08/05 03:17:58;;;;;;;3.45;2.40;;;;;;;17.51;100.00;97936.66;2612232;28;20076;-85
2023/08/05 03:19:14;;;;;;;4.07;2.72;;;;;;;17.45;100.00;97931.75;2612291;28;20416;-85
2023/08/05 03:20:31;;;;;;;3.90;2.60;;;;;;;17.52;100.00;97930.44;2612074;28;20055;-85
2023/08/05 03:21:47;;;;;;;4.95;2.50;;;;;;;17.57;100.00;97932.78;2612259;28;20041;-84
2023/08/05 03:23:03;;;;;;;2.83;2.35;;;;;;;17.46;100.00;97928.16;2612168;28;20127;-85
2023/08/05 03:24:18;;;;;;;5.13;2.58;;;;;;;17.48;100.00;97928.94;2600890;28;20548;-85
2023/08/05 03:25:34;;;;;;;3.10;2.65;;;;;;;17.43;100.00;97925.72;2605505;28;20493;-85
2023/08/05 03:26:49;;;;;;;4.80;2.92;;;;;;;17.39;100.00;97926.88;2612143;28;20045;-85
2023/08/05 03:28:05;;;;;;;3.10;2.60;;;;;;;17.43;100.00;97928.38;2612412;28;20045;-85
2023/08/05 03:29:20;;;;;;;4.05;2.92;;;;;;;17.54;100.00;97931.16;2613978;28;20480;-85
2023/08/05 03:30:36;;;;;;;3.22;2.70;;;;;;;17.49;100.00;97930.63;2614219;28;20095;-85
2023/08/05 03:31:51;;;;;;;4.22;2.60;;;;;;;17.40;100.00;97931.22;2614185;28;20055;-85
2023/08/05 03:33:08;;;;;;;7.75;3.17;;;;;;;17.33;100.00;97934.28;2614026;28;20094;-85
2023/08/05 03:34:24;;;;;;;3.28;2.80;;;;;;;17.42;100.00;97930.19;2613916;28;20041;-85
2023/08/05 03:35:43;;;;;;;2.95;2.65;;;;;;;17.45;100.00;97937.06;2614201;28;20477;-85
2023/08/05 03:36:58;;;;;;;4.22;2.90;;;;;;;17.34;100.00;97938.63;2614022;28;20519;-85
2023/08/05 03:38:15;;;;;;;5.00;3.35;;;;;;;17.47;100.00;97936.00;2614091;28;20119;-85
2023/08/05 03:39:31;;;;;;;4.57;3.22;;;;;;;17.49;100.00;97935.94;2614056;28;20510;-85
2023/08/05 03:40:46;;;;;;;3.60;3.05;;;;;;;17.39;100.00;97938.31;2614012;28;20051;-85
2023/08/05 03:42:02;;;;;;;3.55;2.80;;;;;;;17.43;100.00;97938.94;2614106;28;20068;-85
2023/08/05 03:43:17;;;;;;;6.53;3.08;;;;;;;17.29;100.00;97943.31;2613996;28;20233;-85
2023/08/05 03:44:33;;;;;;;5.68;3.13;;;;;;;17.40;100.00;97945.31;2613753;28;20049;-85
2023/08/05 03:45:50;;;;;;;3.88;2.90;;;;;;;17.44;100.00;97951.22;2613949;28;20045;-85
2023/08/05 03:47:05;;;;;;;6.80;2.83;;;;;;;17.15;100.00;97948.66;2614104;28;20124;-84
2023/08/05 03:48:21;;;;;;;3.83;3.10;;;;;;;17.43;100.00;97949.53;2613849;28;20183;-84
2023/08/05 03:49:39;;;;;;;4.75;3.10;;;;;;;17.40;100.00;97945.31;2613829;28;20490;-84
2023/08/05 03:50:54;;;;;;;2.90;2.55;;;;;;;17.40;100.00;97944.44;2614074;28;20480;-84
2023/08/05 03:52:10;;;;;;;4.57;3.40;;;;;;;17.33;100.00;97944.00;2613860;28;20037;-88
2023/08/05 03:53:25;;;;;;;4.38;3.58;;;;;;;17.34;100.00;97953.63;2613930;28;20045;-85
2023/08/05 03:54:41;;;;;;;3.95;2.90;;;;;;;17.35;100.00;97948.25;2613820;28;20045;-84
2023/08/05 03:55:56;;;;;;;4.15;2.80;;;;;;;17.34;100.00;97943.03;2613969;28;20060;-85
2023/08/05 03:57:12;;;;;;;4.57;3.15;;;;;;;17.42;100.00;97946.06;2613756;28;20049;-84
2023/08/05 03:58:27;;;;;;;4.80;3.40;;;;;;;17.41;100.00;97946.16;2602785;28;20080;-85
2023/08/05 03:59:43;;;;;;;3.88;2.75;;;;;;;17.46;100.00;97938.75;2607126;28;20041;-85
2023/08/05 04:01:00;;;;;;;4.78;3.25;;;;;;;17.33;100.00;97942.22;2613679;28;20106;-86
2023/08/05 04:02:16;;;;;;;3.97;2.85;;;;;;;17.42;100.00;97935.47;2613724;28;20049;-85
2023/08/05 04:03:36;;;;;;;4.45;2.90;;;;;;;17.47;100.00;97937.81;2613875;28;20416;-85
2023/08/05 04:04:51;;;;;;;4.80;2.97;;;;;;;17.43;100.00;97938.94;2613617;28;20049;-85
2023/08/05 04:06:07;;;;;;;4.38;2.97;;;;;;;17.45;100.00;97939.69;2614007;28;20473;-85
2023/08/05 04:07:24;;;;;;;3.10;2.70;;;;;;;17.49;100.00;97941.22;2613690;28;20048;-86
2023/08/05 04:08:41;;;;;;;3.80;2.70;;;;;;;17.45;100.00;97934.41;2613778;28;20072;-85
2023/08/05 04:09:57;;;;;;;3.42;2.90;;;;;;;17.35;100.00;97944.75;2613719;28;20403;-85
2023/08/05 04:11:12;;;;;;;4.50;2.88;;;;;;;17.51;100.00;97941.97;2613830;28;20069;-85
2023/08/05 04:12:28;;;;;;;3.45;2.60;;;;;;;17.45;100.00;97945.84;2613736;28;20048;-85
2023/08/05 04:13:45;;;;;;;4.78;2.58;;;;;;;17.58;100.00;97945.06;2613762;28;20049;-85
2023/08/05 04:15:02;;;;;;;3.78;2.95;;;;;;;17.44;100.00;97940.66;2613508;28;20163;-84
2023/08/05 04:16:19;;;;;;;4.70;3.03;;;;;;;17.50;100.00;97941.09;2613756;28;20572;-85
2023/08/05 04:17:34;;;;;;;4.40;2.85;;;;;;;17.46;100.00;97944.91;2613690;28;20087;-85
2023/08/05 04:18:50;;;;;;;3.88;2.88;;;;;;;17.42;100.00;97955.78;2613543;28;20048;-85
2023/08/05 04:20:06;;;;;;;4.88;2.80;;;;;;;17.34;100.00;97949.19;2613674;28;20052;-85
2023/08/05 04:21:25;;;;;;;4.25;3.08;;;;;;;17.30;100.00;97944.19;2613776;28;20044;-85
2023/08/05 04:22:40;;;;;;;5.05;2.95;;;;;;;17.40;100.00;97950.59;2613412;28;20098;-85
2023/08/05 04:23:56;;;;;;;4.82;2.90;;;;;;;17.46;100.00;97946.69;2613643;28;20492;-85
2023/08/05 04:25:12;;;;;;;6.55;2.88;;;;;;;17.42;100.00;97940.75;2613606;28;20045;-85
2023/08/05 04:26:27;;;;;;;5.65;2.97;;;;;;;17.52;100.00;97948.94;2613679;28;20777;-85
2023/08/05 04:27:43;;;;;;;3.40;2.78;;;;;;;17.50;100.00;97946.41;2613624;28;20041;-85
2023/08/05 04:28:58;;;;;;;5.00;2.90;;;;;;;17.54;100.00;97952.34;2602480;28;20047;-85
2023/08/05 04:30:14;;;;;;;5.70;2.95;;;;;;;17.49;100.00;97943.88;2606817;28;20037;-85
2023/08/05 04:31:29;;;;;;;4.13;3.30;;;;;;;17.49;100.00;97943.88;2613539;28;20183;-86
2023/08/05 04:32:45;;;;;;;5.10;2.97;;;;;;;17.52;100.00;97941.00;2613666;28;20044;-85
2023/08/05 04:34:01;;;;;;;4.75;3.38;;;;;;;17.51;100.00;97945.44;2613614;28;20189;-85
2023/08/05 04:35:16;;;;;;;3.33;2.70;;;;;;;17.62;100.00;97938.63;2613500;28;20067;-85
2023/08/05 04:36:32;;;;;;;4.50;2.92;;;;;;;17.70;100.00;97936.31;2613497;28;20072;-85
2023/08/05 04:37:47;;;;;;;5.45;3.85;;;;;;;17.68;100.00;97943.53;2613442;28;20485;-85
2023/08/05 04:39:04;;;;;;;4.68;3.17;;;;;;;17.64;100.00;97937.56;2613223;28;20064;-85
2023/08/05 04:40:19;;;;;;;3.67;3.15;;;;;;;17.64;100.00;97942.88;2602406;28;20068;-85
2023/08/05 04:41:35;;;;;;;3.63;3.08;;;;;;;17.69;100.00;97939.06;2606921;28;20045;-86
2023/08/05 04:42:50;;;;;;;3.65;2.90;;;;;;;17.50;100.00;97938.44;2613356;28;20618;-86
2023/08/05 04:44:06;;;;;;;5.80;3.13;;;;;;;17.61;100.00;97940.44;2613361;28;20049;-85
2023/08/05 04:45:22;;;;;;;4.53;3.10;;;;;;;17.65;100.00;97938.41;2602323;28;20048;-85
2023/08/05 04:46:37;;;;;;;5.80;2.88;;;;;;;17.64;100.00;97942.00;2606837;28;20072;-86
2023/08/05 04:47:53;;;;;;;4.32;3.15;;;;;;;17.75;100.00;97938.69;2613272;28;20048;-85
2023/08/05 04:49:11;;;;;;;3.55;3.00;;;;;;;17.82;100.00;97939.13;2613349;28;20048;-85
2023/08/05 04:50:27;;;;;;;4.75;3.67;;;;;;;17.81;100.00;97942.69;2613315;28;20045;-85
2023/08/05 04:51:42;;;;;;;4.93;3.28;;;;;;;17.84;100.00;97932.75;2613273;28;20072;-85
2023/08/05 04:52:58;;;;;;;3.90;3.10;;;;;;;17.79;100.00;97934.88;2613384;28;20049;-86
2023/08/05 04:54:13;;;;;;;5.13;3.50;;;;;;;17.75;100.00;97933.38;2613315;28;20111;-86
2023/08/05 04:55:29;;;;;;;3.58;2.80;;;;;;;17.91;100.00;97934.06;2613183;28;20045;-85
2023/08/05 04:56:44;;;;;;;3.92;3.22;;;;;;;17.92;100.00;97935.75;2613353;28;20045;-85
2023/08/05 04:58:01;;;;;;;4.85;3.20;;;;;;;17.93;100.00;97926.84;2613411;28;20049;-85
2023/08/05 04:59:17;;;;;;;4.53;3.38;;;;;;;17.83;100.00;97925.75;2613238;28;20677;-85
2023/08/05 05:00:32;;;;;;;5.30;3.17;;;;;;;17.92;100.00;97932.25;2613202;28;20041;-85
2023/08/05 05:01:48;;;;;;;4.03;2.95;;;;;;;17.95;100.00;97923.25;2613133;28;20095;-85
2023/08/05 05:03:05;;;;;;;3.53;2.70;;;;;;;17.90;100.00;97928.84;2613257;28;20045;-85
2023/08/05 05:04:21;;;;;;;4.10;2.78;;;;;;;17.95;100.00;97929.41;2613092;28;20056;-85
2023/08/05 05:05:36;;;;;;;4.32;2.95;;;;;;;17.90;100.00;97926.19;2613211;28;20044;-85
2023/08/05 05:06:52;;;;;;;5.10;2.97;;;;;;;17.94;100.00;97919.75;2613215;28;20041;-85
2023/08/05 05:08:07;;;;;;;4.68;2.90;;;;;;;17.86;100.00;97930.84;2613277;28;20048;-85
2023/08/05 05:09:23;;;;;;;5.53;3.10;;;;;;;17.94;100.00;97930.34;2613049;28;20037;-85
2023/08/05 05:10:39;;;;;;;4.60;2.95;;;;;;;17.99;100.00;97924.75;2613178;28;20060;-85
2023/08/05 05:11:55;;;;;;;3.83;2.90;;;;;;;17.97;100.00;97924.88;2612950;28;20074;-85
2023/08/05 05:13:10;;;;;;;4.80;3.42;;;;;;;17.95;100.00;97933.84;2613077;28;20037;-85
2023/08/05 05:14:26;;;;;;;5.10;2.90;;;;;;;17.87;100.00;97924.59;2613171;28;20532;-85
2023/08/05 05:15:41;;;;;;;5.85;3.42;;;;;;;17.95;100.00;97918.81;2612993;28;20127;-85
2023/08/05 05:16:57;;;;;;;4.93;3.25;;;;;;;18.02;100.00;97925.41;2613104;28;20056;-85
2023/08/05 05:18:12;;;;;;;5.18;3.35;;;;;;;18.03;100.00;97921.81;2613109;28;20049;-85
2023/08/05 05:19:28;;;;;;;3.70;3.15;;;;;;;18.04;100.00;97926.16;2613039;28;20044;-85
2023/08/05 05:20:49;;;;;;;4.30;3.40;;;;;;;17.99;100.00;97927.38;2612936;28;20440;-85
2023/08/05 05:22:04;;;;;;;6.15;3.38;;;;;;;18.03;100.00;97929.75;2612994;28;20045;-85
2023/08/05 05:23:20;;;;;;;4.65;3.30;;;;;;;18.13;100.00;97930.00;2601921;28;20045;-85
2023/08/05 05:24:36;;;;;;;5.78;3.40;;;;;;;18.21;100.00;97935.63;2606449;28;20056;-85
2023/08/05 05:25:51;;;;;;;3.63;3.08;;;;;;;18.07;100.00;97931.25;2613121;28;20409;-85
2023/08/05 05:27:07;;;;;;;4.28;2.75;;;;;;;18.05;100.00;97924.38;2612973;28;20068;-85
2023/08/05 05:28:23;;;;;;;5.88;3.30;;;;;;;18.18;100.00;97933.19;2613045;28;20065;-85
2023/08/05 05:29:39;;;;;;;6.93;3.40;;;;;;;18.01;100.00;97921.03;2612827;28;20041;-85
2023/08/05 05:30:55;;;;;;;5.10;3.17;;;;;;;18.01;100.00;97925.47;2612896;28;20040;-85
2023/08/05 05:32:11;;;;;;;6.82;3.10;;;;;;;18.03;100.00;97926.28;2612812;28;20044;-85
2023/08/05 05:33:26;;;;;;;3.80;2.92;;;;;;;17.88;100.00;97931.63;2612927;28;20084;-85
2023/08/05 05:34:42;;;;;;;6.13;3.30;;;;;;;18.03;100.00;97923.63;2612957;28;20049;-85
2023/08/05 05:35:57;;;;;;;4.55;3.42;;;;;;;18.11;100.00;97925.78;2612721;28;20080;-86
2023/08/05 05:37:13;;;;;;;6.50;3.30;;;;;;;18.22;100.00;97920.56;2612991;28;20131;-85
2023/08/05 05:38:29;;;;;;;3.63;3.15;;;;;;;18.21;100.00;97918.88;2612937;28;20064;-86
2023/08/05 05:39:44;;;;;;;6.15;2.78;;;;;;;18.12;100.00;97925.66;2612697;28;20492;-86
2023/08/05 05:40:59;;;;;;;5.10;3.40;;;;;;;18.09;100.00;97923.22;2612960;28;20535;-86
2023/08/05 05:42:15;;;;;;;4.20;2.80;;;;;;;18.22;100.00;97925.88;2612928;28;20045;-86
2023/08/05 05:43:31;;;;;;;5.25;3.00;;;;;;;18.00;100.00;97916.69;2612848;28;20049;-85
2023/08/05 05:44:52;;;;;;;3.92;3.13;;;;;;;18.00;100.00;97915.84;2612708;28;20045;-85
2023/08/05 05:46:07;;;;;;;5.32;2.75;;;;;;;18.09;100.00;97915.25;2612667;28;20072;-86
2023/08/05 05:47:23;;;;;;;4.10;3.03;;;;;;;18.20;100.00;97914.53;2601525;28;20508;-85
2023/08/05 05:48:38;;;;;;;4.53;3.05;;;;;;;18.30;100.00;97918.25;2606085;28;20493;-85
2023/08/05 05:49:54;;;;;;;3.58;2.83;;;;;;;18.29;100.00;97913.91;2612682;28;20049;-86
2023/08/05 05:51:10;;;;;;;4.60;2.67;;;;;;;18.38;100.00;97919.53;2612101;28;20041;-85
2023/08/05 05:52:25;;;;;;;3.35;3.05;;;;;;;18.42;100.00;97910.44;2612814;28;20052;-86